sensor_id;sensor_type;location;lat;lon;timestamp;pressure;altitude;pressure_sealevel;temperature;humidity
30338;BME280;17143;51.888;5.408;2023-04-01T00:14:38;98922.28;;;10.88;100.00
30338;BME280;17143;51.888;5.408;2023-04-01T00:29:42;98923.19;;;10.90;100.00
30338;BME280;17143;51.888;5.408;2023-04-01T00:44:49;98924.91;;;10.91;100.00
30338;BME280;17143;51.888;5.408;2023-04-01T00:59:54;98933.38;;;10.81;100.00
30338;BME280;17143;51.888;5.408;2023-04-01T01:15:03;98949.81;;;10.77;100.00
30338;BME280;17143;51.888;5.408;2023-04-01T01:30:15;98956.50;;;10.66;100.00
30338;BME280;17143;51.888;5.408;2023-04-01T01:45:24;98967.66;;;10.62;100.00
30338;BME280;17143;51.888;5.408;2023-04-01T02:00:28;98972.78;;;10.57;100.00
30338;BME280;17143;51.888;5.408;2023-04-01T02:15:32;98977.06;;;10.54;100.00
30338;BME280;17143;51.888;5.408;2023-04-01T02:30:40;98980.41;;;10.50;100.00
30338;BME280;17143;51.888;5.408;2023-04-01T02:45:43;98989.00;;;10.46;100.00
30338;BME280;17143;51.888;5.408;2023-04-01T03:00:45;99007.06;;;10.39;100.00
30338;BME280;17143;51.888;5.408;2023-04-01T03:15:47;99000.84;;;10.34;100.00
30338;BME280;17143;51.888;5.408;2023-04-01T03:30:50;99024.13;;;10.28;100.00
30338;BME280;17143;51.888;5.408;2023-04-01T03:45:52;99031.03;;;10.28;100.00
30338;BME280;17143;51.888;5.408;2023-04-01T04:00:54;99031.84;;;10.25;100.00
30338;BME280;17143;51.888;5.408;2023-04-01T04:15:57;99051.63;;;10.19;100.00
30338;BME280;17143;51.888;5.408;2023-04-01T04:31:00;99070.72;;;10.19;100.00
30338;BME280;17143;51.888;5.408;2023-04-01T04:46:06;99084.75;;;10.24;100.00
30338;BME280;17143;51.888;5.408;2023-04-01T05:01:10;99112.69;;;10.31;100.00
30338;BME280;17143;51.888;5.408;2023-04-01T05:16:16;99145.00;;;10.39;100.00
30338;BME280;17143;51.888;5.408;2023-04-01T05:31:19;99162.63;;;10.50;100.00
30338;BME280;17143;51.888;5.408;2023-04-01T05:46:23;99195.75;;;10.54;100.00
30338;BME280;17143;51.888;5.408;2023-04-01T06:01:32;99210.63;;;10.59;100.00
30338;BME280;17143;51.888;5.408;2023-04-01T06:16:41;99230.59;;;10.59;100.00
30338;BME280;17143;51.888;5.408;2023-04-01T06:47:45;99283.84;;;10.70;100.00
30338;BME280;17143;51.888;5.408;2023-04-01T07:03:16;99302.16;;;10.73;100.00
30338;BME280;17143;51.888;5.408;2023-04-01T07:18:25;99317.63;;;10.67;100.00
30338;BME280;17143;51.888;5.408;2023-04-01T07:33:36;99348.88;;;10.67;100.00
30338;BME280;17143;51.888;5.408;2023-04-01T07:48:49;99371.47;;;10.68;100.00
30338;BME280;17143;51.888;5.408;2023-04-01T08:19:34;99432.06;;;10.90;100.00
30338;BME280;17143;51.888;5.408;2023-04-01T08:34:44;99444.34;;;11.24;100.00
30338;BME280;17143;51.888;5.408;2023-04-01T08:50:06;99467.06;;;11.28;100.00
30338;BME280;17143;51.888;5.408;2023-04-01T09:21:08;99508.34;;;11.43;100.00
30338;BME280;17143;51.888;5.408;2023-04-01T09:36:25;99528.13;;;11.36;100.00
30338;BME280;17143;51.888;5.408;2023-04-01T09:51:39;99550.00;;;11.41;100.00
30338;BME280;17143;51.888;5.408;2023-04-01T10:07:09;99561.41;;;11.45;100.00
30338;BME280;17143;51.888;5.408;2023-04-01T11:25:25;99630.53;;;12.17;100.00
30338;BME280;17143;51.888;5.408;2023-04-01T11:41:10;99648.53;;;12.39;100.00
30338;BME280;17143;51.888;5.408;2023-04-01T11:56:28;99655.66;;;12.76;100.00
30338;BME280;17143;51.888;5.408;2023-04-01T12:11:39;99687.59;;;12.99;100.00
30338;BME280;17143;51.888;5.408;2023-04-01T12:26:55;99695.06;;;12.52;100.00
30338;BME280;17143;51.888;5.408;2023-04-01T12:42:05;99714.53;;;13.27;100.00
30338;BME280;17143;51.888;5.408;2023-04-01T12:57:26;99728.03;;;13.44;100.00
30338;BME280;17143;51.888;5.408;2023-04-01T13:28:14;99775.63;;;12.68;100.00
30338;BME280;17143;51.888;5.408;2023-04-01T13:43:20;99785.53;;;12.78;100.00
30338;BME280;17143;51.888;5.408;2023-04-01T13:58:41;99796.50;;;13.61;100.00
30338;BME280;17143;51.888;5.408;2023-04-01T14:13:52;99815.50;;;13.89;100.00
30338;BME280;17143;51.888;5.408;2023-04-01T14:29:06;99833.84;;;13.55;100.00
30338;BME280;17143;51.888;5.408;2023-04-01T14:44:38;99844.31;;;13.55;100.00
30338;BME280;17143;51.888;5.408;2023-04-01T14:59:49;99855.56;;;13.20;100.00
30338;BME280;17143;51.888;5.408;2023-04-01T15:15:02;99880.72;;;12.87;100.00
30338;BME280;17143;51.888;5.408;2023-04-01T15:30:48;99907.03;;;12.36;100.00
30338;BME280;17143;51.888;5.408;2023-04-01T15:46:08;99940.81;;;12.05;100.00
30338;BME280;17143;51.888;5.408;2023-04-01T16:01:19;99973.69;;;12.00;100.00
30338;BME280;17143;51.888;5.408;2023-04-01T16:16:35;99993.00;;;12.05;100.00
30338;BME280;17143;51.888;5.408;2023-04-01T16:31:46;100026.66;;;11.96;100.00
30338;BME280;17143;51.888;5.408;2023-04-01T16:46:51;100057.53;;;11.84;100.00
30338;BME280;17143;51.888;5.408;2023-04-01T17:02:01;100096.69;;;11.61;100.00
30338;BME280;17143;51.888;5.408;2023-04-01T17:17:25;100133.72;;;11.53;100.00
30338;BME280;17143;51.888;5.408;2023-04-01T17:32:41;100163.41;;;11.34;100.00
30338;BME280;17143;51.888;5.408;2023-04-01T17:48:00;100194.56;;;11.09;100.00
30338;BME280;17143;51.888;5.408;2023-04-01T18:03:13;100236.69;;;10.99;100.00
30338;BME280;17143;51.888;5.408;2023-04-01T18:18:35;100273.06;;;10.77;100.00
30338;BME280;17143;51.888;5.408;2023-04-01T18:33:46;100322.84;;;10.64;100.00
30338;BME280;17143;51.888;5.408;2023-04-01T18:48:54;100360.38;;;10.50;100.00
30338;BME280;17143;51.888;5.408;2023-04-01T19:04:08;100389.56;;;10.43;100.00
30338;BME280;17143;51.888;5.408;2023-04-01T19:19:21;100423.50;;;10.26;100.00
30338;BME280;17143;51.888;5.408;2023-04-01T19:34:31;100459.81;;;10.23;100.00
30338;BME280;17143;51.888;5.408;2023-04-01T19:49:47;100491.41;;;10.13;100.00
30338;BME280;17143;51.888;5.408;2023-04-01T20:04:53;100518.88;;;10.08;100.00
30338;BME280;17143;51.888;5.408;2023-04-01T20:20:00;100557.44;;;9.99;100.00
30338;BME280;17143;51.888;5.408;2023-04-01T20:50:50;100629.63;;;9.55;100.00
30338;BME280;17143;51.888;5.408;2023-04-01T21:37:10;100725.09;;;9.27;100.00
30338;BME280;17143;51.888;5.408;2023-04-01T21:52:35;100762.03;;;9.06;100.00
30338;BME280;17143;51.888;5.408;2023-04-01T22:07:47;100781.56;;;8.85;100.00
30338;BME280;17143;51.888;5.408;2023-04-01T22:23:10;100817.00;;;8.70;100.00
30338;BME280;17143;51.888;5.408;2023-04-01T22:38:23;100837.31;;;8.63;100.00
30338;BME280;17143;51.888;5.408;2023-04-01T22:53:40;100869.41;;;8.50;100.00
30338;BME280;17143;51.888;5.408;2023-04-01T23:08:56;100898.78;;;8.49;100.00
30338;BME280;17143;51.888;5.408;2023-04-01T23:24:06;100921.16;;;8.47;100.00
30338;BME280;17143;51.888;5.408;2023-04-01T23:39:21;100939.50;;;8.11;100.00
30338;BME280;17143;51.888;5.408;2023-04-01T23:54:32;100975.13;;;8.00;100.00
